Time;durP1;ratioP1;P1;durP2;ratioP2;P2;SDS_P1;SDS_P2;PMS_P1;PMS_P2;Temp;Humidity;BMP_temperature;BMP_pressure;BME280_temperature;BME280_humidity;BME280_pressure;Samples;Min_cycle;Max_cycle;Signal;HPM_P1;HPM_P2
2024/03/21 00:01:23;;;;;;;45.88;26.83;;;;;;;11.13;100.00;101649.06;10274073;28;20048;-73
2024/03/21 00:06:22;;;;;;;44.67;27.85;;;;;;;11.05;100.00;101645.09;10272316;28;20044;-74
2024/03/21 00:11:17;;;;;;;45.22;27.48;;;;;;;11.08;100.00;101636.28;10271058;28;20052;-73
2024/03/21 00:16:13;;;;;;;54.30;30.70;;;;;;;11.10;100.00;101633.25;10262184;28;20683;-74
2024/03/21 00:21:08;;;;;;;49.55;30.08;;;;;;;11.06;100.00;101616.59;10270386;28;20044;-74
2024/03/21 00:26:05;;;;;;;46.22;27.70;;;;;;;11.07;100.00;101618.25;10270465;28;20041;-75
2024/03/21 00:31:00;;;;;;;43.35;28.00;;;;;;;11.10;100.00;101612.16;10267761;28;20068;-74
2024/03/21 00:35:56;;;;;;;49.30;30.20;;;;;;;11.05;100.00;101611.44;10270036;28;20045;-76
2024/03/21 00:40:51;;;;;;;43.90;29.50;;;;;;;10.94;100.00;101603.38;10272404;28;20044;-75
2024/03/21 00:45:47;;;;;;;45.20;30.13;;;;;;;10.93;100.00;101596.31;10265437;28;20051;-76
2024/03/21 00:50:42;;;;;;;53.17;30.88;;;;;;;10.91;100.00;101593.03;10271793;28;20428;-77
2024/03/21 00:55:38;;;;;;;48.30;30.02;;;;;;;10.93;100.00;101590.81;10268670;28;20417;-75
2024/03/21 01:00:33;;;;;;;50.55;30.48;;;;;;;10.90;100.00;101571.44;10276622;28;20049;-77
2024/03/21 01:05:29;;;;;;;50.47;30.17;;;;;;;10.85;100.00;101566.88;10264249;28;20048;-76
2024/03/21 01:10:24;;;;;;;43.08;26.10;;;;;;;10.79;100.00;101559.03;10270747;28;20056;-75
2024/03/21 01:15:20;;;;;;;47.60;28.08;;;;;;;10.74;100.00;101555.31;10263893;28;20067;-74
2024/03/21 01:20:16;;;;;;;40.08;24.38;;;;;;;10.73;100.00;101552.84;10266082;28;20041;-75
2024/03/21 01:25:12;;;;;;;37.42;22.85;;;;;;;10.71;100.00;101536.72;10263935;28;20041;-73
2024/03/21 01:30:08;;;;;;;36.35;22.38;;;;;;;10.72;100.00;101535.63;10268780;28;20045;-75
2024/03/21 01:35:04;;;;;;;35.15;22.65;;;;;;;10.66;100.00;101531.34;10266851;28;20057;-75
2024/03/21 01:40:06;;;;;;;34.03;21.83;;;;;;;10.67;100.00;101516.56;10270058;28;20060;-75
2024/03/21 01:45:05;;;;;;;37.93;21.37;;;;;;;10.64;100.00;101517.16;10270276;28;20084;-76
2024/03/21 01:50:02;;;;;;;36.75;22.70;;;;;;;10.57;100.00;101516.72;10263473;28;20053;-76
2024/03/21 01:54:58;;;;;;;39.58;23.15;;;;;;;10.62;100.00;101502.97;10269928;28;20444;-75
2024/03/21 01:59:56;;;;;;;42.45;24.73;;;;;;;10.58;100.00;101501.94;10270326;28;20056;-75
2024/03/21 02:04:52;;;;;;;43.28;25.27;;;;;;;10.59;100.00;101492.63;10264600;28;20068;-75
2024/03/21 02:09:49;;;;;;;34.38;21.45;;;;;;;10.57;100.00;101489.38;10267368;28;20076;-74
2024/03/21 02:14:47;;;;;;;36.88;20.75;;;;;;;10.56;100.00;101487.78;10267220;28;20621;-74
2024/03/21 02:19:43;;;;;;;33.97;20.10;;;;;;;10.53;100.00;101485.63;10263755;28;20038;-74
2024/03/21 02:24:38;;;;;;;33.28;20.75;;;;;;;10.44;100.00;101488.25;10258775;28;20049;-74
2024/03/21 02:29:34;;;;;;;34.20;19.50;;;;;;;10.41;100.00;101474.34;10274802;28;20049;-74
2024/03/21 02:34:31;;;;;;;37.47;21.20;;;;;;;10.43;100.00;101485.78;10263648;28;20047;-74
2024/03/21 02:39:26;;;;;;;33.72;19.55;;;;;;;10.37;100.00;101479.56;10268602;28;20052;-73
2024/03/21 02:44:25;;;;;;;34.88;21.48;;;;;;;10.32;100.00;101472.28;10263847;28;20425;-73
2024/03/21 02:49:20;;;;;;;31.30;19.90;;;;;;;10.28;100.00;101459.47;10265755;28;20083;-75
2024/03/21 02:54:16;;;;;;;30.30;19.05;;;;;;;10.24;100.00;101440.13;10266158;28;20602;-73
2024/03/21 02:59:11;;;;;;;34.65;18.42;;;;;;;10.21;100.00;101454.41;10268539;28;20439;-73
2024/03/21 03:04:10;;;;;;;36.00;19.80;;;;;;;10.19;100.00;101439.38;10264077;28;20564;-74
2024/03/21 03:09:05;;;;;;;35.67;19.40;;;;;;;10.13;100.00;101430.47;10263257;28;20276;-73
2024/03/21 03:14:01;;;;;;;34.85;19.58;;;;;;;10.13;100.00;101441.41;10266672;28;20037;-73
2024/03/21 03:18:57;;;;;;;40.47;21.40;;;;;;;10.16;100.00;101446.25;10267279;28;20048;-72
2024/03/21 03:23:52;;;;;;;35.00;21.08;;;;;;;10.16;100.00;101450.91;10267338;28;20048;-76
2024/03/21 03:28:48;;;;;;;36.70;19.85;;;;;;;10.13;100.00;101452.31;10270517;28;20071;-75
2024/03/21 03:38:57;;;;;;;35.85;17.65;;;;;;;10.13;100.00;101446.06;10268935;28;20064;-75
2024/03/21 03:43:53;;;;;;;30.25;18.23;;;;;;;10.08;100.00;101460.59;10270861;28;20049;-76
2024/03/21 03:48:49;;;;;;;30.08;17.38;;;;;;;10.06;100.00;101454.63;10279464;28;20048;-76
2024/03/21 03:53:44;;;;;;;31.25;17.65;;;;;;;10.02;100.00;101442.66;10276759;28;20045;-77
2024/03/21 03:58:40;;;;;;;27.65;15.30;;;;;;;10.06;100.00;101435.50;10275742;28;20082;-76
2024/03/21 04:03:35;;;;;;;28.48;14.90;;;;;;;10.02;100.00;101420.81;10270622;28;20045;-75
2024/03/21 04:08:31;;;;;;;23.88;14.55;;;;;;;10.04;100.00;101426.78;10281265;28;20045;-74
2024/03/21 04:13:26;;;;;;;25.13;13.77;;;;;;;9.98;100.00;101414.31;10278660;28;20067;-74
2024/03/21 04:18:23;;;;;;;24.58;13.40;;;;;;;10.03;100.00;101416.97;10276342;28;20052;-74
2024/03/21 04:23:19;;;;;;;21.95;13.07;;;;;;;10.00;100.00;101414.81;10266820;28;20079;-74
2024/03/21 04:28:15;;;;;;;21.58;12.23;;;;;;;9.99;100.00;101407.75;10260170;28;20045;-74
2024/03/21 04:33:10;;;;;;;22.95;13.07;;;;;;;10.01;100.00;101416.47;10268180;28;20489;-73
2024/03/21 04:38:09;;;;;;;22.52;11.85;;;;;;;9.96;100.00;101398.22;10276660;28;20508;-73
2024/03/21 04:43:05;;;;;;;22.52;13.23;;;;;;;10.01;100.00;101405.53;10272660;28;20069;-75
2024/03/21 04:48:01;;;;;;;23.73;11.15;;;;;;;10.03;100.00;101400.59;10275918;28;20345;-74
2024/03/21 04:52:56;;;;;;;19.98;12.00;;;;;;;10.00;100.00;101406.63;10272872;28;20037;-74
2024/03/21 04:57:52;;;;;;;20.10;11.07;;;;;;;10.01;100.00;101406.34;10278805;28;20048;-74
2024/03/21 05:02:48;;;;;;;18.35;11.07;;;;;;;9.98;100.00;101400.63;10277145;28;20406;-75
2024/03/21 05:07:44;;;;;;;19.63;10.10;;;;;;;9.98;100.00;101411.56;10278424;28;20404;-75
2024/03/21 05:12:39;;;;;;;19.98;10.85;;;;;;;9.99;100.00;101407.75;10273443;28;20417;-74
2024/03/21 05:17:35;;;;;;;19.23;10.95;;;;;;;9.98;100.00;101387.81;10272300;28;20116;-77
2024/03/21 05:22:30;;;;;;;18.33;10.63;;;;;;;9.99;100.00;101380.44;10268210;28;20151;-79
2024/03/21 05:27:26;;;;;;;18.30;9.73;;;;;;;10.01;100.00;101380.94;10257988;28;20060;-73
2024/03/21 05:32:21;;;;;;;16.33;9.48;;;;;;;9.96;100.00;101375.56;10261128;28;20036;-77
2024/03/21 05:37:17;;;;;;;17.33;10.05;;;;;;;9.95;100.00;101379.38;10272333;28;20053;-73
2024/03/21 05:42:14;;;;;;;18.00;10.15;;;;;;;9.93;100.00;101373.41;10260571;28;20044;-72
2024/03/21 05:47:25;;;;;;;17.48;10.23;;;;;;;9.94;100.00;101378.59;10283241;27;20928;-73
2024/03/21 05:52:21;;;;;;;15.77;9.80;;;;;;;9.94;100.00;101383.25;10244392;28;20045;-73
2024/03/21 05:57:17;;;;;;;15.35;9.20;;;;;;;10.01;100.00;101389.13;10265785;28;20056;-74
2024/03/21 06:02:13;;;;;;;17.17;9.80;;;;;;;9.99;100.00;101388.63;10297838;28;20041;-73
2024/03/21 06:07:08;;;;;;;17.08;9.02;;;;;;;9.92;100.00;101396.38;10292983;28;20072;-75
2024/03/21 06:12:04;;;;;;;22.00;10.68;;;;;;;9.35;100.00;101410.81;10282479;28;20052;-74
2024/03/21 06:16:59;;;;;;;21.17;11.25;;;;;;;9.02;100.00;101429.75;10288572;28;20051;-74
2024/03/21 06:21:56;;;;;;;22.55;10.68;;;;;;;8.78;100.00;101451.56;10285360;28;20137;-73
2024/03/21 06:26:51;;;;;;;22.42;10.68;;;;;;;8.68;100.00;101457.13;10291888;28;20076;-75
2024/03/21 06:31:47;;;;;;;17.08;9.05;;;;;;;8.60;100.00;101461.25;10294242;28;20501;-75
2024/03/21 06:36:43;;;;;;;17.13;10.13;;;;;;;8.42;100.00;101465.50;10307152;28;20985;-75
2024/03/21 06:41:38;;;;;;;18.33;9.40;;;;;;;8.39;100.00;101484.31;10279310;28;20070;-76
2024/03/21 06:46:38;;;;;;;17.92;8.68;;;;;;;8.15;100.00;101498.63;10289193;28;20057;-75
2024/03/21 06:51:33;;;;;;;15.52;8.98;;;;;;;7.98;100.00;101509.06;10284189;28;20517;-75
2024/03/21 06:56:29;;;;;;;13.57;8.13;;;;;;;8.05;100.00;101515.03;10283343;28;20052;-76
2024/03/21 07:01:24;;;;;;;17.13;8.43;;;;;;;7.98;100.00;101530.84;10276709;28;20049;-75
2024/03/21 07:06:21;;;;;;;12.80;7.15;;;;;;;7.89;100.00;101538.81;10272357;28;20057;-75
2024/03/21 07:11:16;;;;;;;15.52;8.45;;;;;;;8.16;100.00;101549.28;10262732;28;20076;-75
2024/03/21 07:16:16;;;;;;;12.18;7.88;;;;;;;8.40;100.00;101565.81;10258315;28;20560;-76
2024/03/21 07:21:12;;;;;;;14.38;8.75;;;;;;;8.31;100.00;101582.97;10265554;28;20210;-75
2024/03/21 07:26:08;;;;;;;13.75;9.30;;;;;;;8.15;100.00;101593.97;10262000;28;20064;-74
2024/03/21 07:31:04;;;;;;;15.05;9.60;;;;;;;8.03;100.00;101609.84;10267554;28;20456;-75
2024/03/21 07:35:59;;;;;;;15.38;10.40;;;;;;;7.97;100.00;101619.13;10252777;28;20032;-77
2024/03/21 07:40:59;;;;;;;17.15;11.05;;;;;;;7.98;100.00;101628.91;10246898;28;20052;-73
2024/03/21 07:45:54;;;;;;;14.25;8.52;;;;;;;7.98;100.00;101634.34;10270691;28;20068;-75
2024/03/21 07:50:50;;;;;;;13.00;7.10;;;;;;;7.66;100.00;101638.25;10267013;28;20053;-74
2024/03/21 07:55:46;;;;;;;11.15;5.00;;;;;;;7.63;100.00;101648.88;10246671;28;20040;-73
2024/03/21 08:00:42;;;;;;;12.65;4.93;;;;;;;7.61;100.00;101646.41;10258586;28;20044;-76
2024/03/21 08:05:37;;;;;;;23.05;6.55;;;;;;;7.65;100.00;101652.94;10256853;28;20048;-73
2024/03/21 08:10:34;;;;;;;14.15;5.32;;;;;;;7.55;100.00;101652.97;10254714;28;20044;-75
2024/03/21 08:15:29;;;;;;;12.63;4.80;;;;;;;7.52;100.00;101662.50;10269599;28;20465;-73
2024/03/21 08:20:25;;;;;;;9.95;4.88;;;;;;;7.63;100.00;101676.91;10263451;28;20052;-73
2024/03/21 08:25:20;;;;;;;13.25;4.95;;;;;;;7.67;100.00;101678.00;10253792;28;20038;-74
2024/03/21 08:30:16;;;;;;;9.93;4.45;;;;;;;7.75;100.00;101671.16;10249502;28;20057;-74
2024/03/21 08:35:11;;;;;;;9.40;5.40;;;;;;;7.61;100.00;101673.63;10256839;28;20128;-74
2024/03/21 08:40:09;;;;;;;14.50;5.78;;;;;;;7.76;100.00;101670.91;10254324;28;20056;-73
2024/03/21 08:45:06;;;;;;;14.02;5.20;;;;;;;7.76;100.00;101683.69;10258179;28;20470;-74
2024/03/21 08:50:03;;;;;;;14.35;6.03;;;;;;;7.92;100.00;101689.94;10268395;28;20213;-75
2024/03/21 08:54:59;;;;;;;12.10;5.90;;;;;;;8.26;100.00;101700.97;10257285;28;20080;-74
2024/03/21 08:59:54;;;;;;;14.02;6.10;;;;;;;8.43;100.00;101711.59;10265372;28;20061;-74
2024/03/21 09:04:50;;;;;;;15.27;5.78;;;;;;;8.23;100.00;101723.34;10258518;28;20103;-74
2024/03/21 09:09:45;;;;;;;14.70;7.22;;;;;;;8.19;100.00;101744.06;10269324;28;20060;-74
2024/03/21 09:14:41;;;;;;;16.80;6.85;;;;;;;8.13;100.00;101751.44;10255384;28;20778;-75
2024/03/21 09:19:37;;;;;;;10.98;6.10;;;;;;;8.21;100.00;101766.38;10260892;28;20048;-72
2024/03/21 09:24:32;;;;;;;16.88;6.68;;;;;;;8.18;100.00;101781.38;10259662;28;20051;-73
2024/03/21 09:29:28;;;;;;;14.38;6.70;;;;;;;8.48;100.00;101778.91;10239148;28;20044;-73
2024/03/21 09:34:24;;;;;;;14.32;7.35;;;;;;;8.70;100.00;101792.97;10270918;28;20396;-73
2024/03/21 09:39:19;;;;;;;15.25;7.80;;;;;;;8.69;100.00;101796.00;10263815;28;20362;-74
2024/03/21 09:44:15;;;;;;;16.38;7.65;;;;;;;8.97;100.00;101787.13;10257648;28;20039;-72
2024/03/21 09:49:12;;;;;;;16.60;7.72;;;;;;;8.93;100.00;101796.16;10268552;28;20092;-73
2024/03/21 09:54:11;;;;;;;13.65;8.13;;;;;;;8.93;100.00;101796.16;10259637;28;20091;-75
2024/03/21 09:59:13;;;;;;;13.35;8.13;;;;;;;9.61;100.00;101809.94;10255241;28;20103;-73
2024/03/21 10:04:08;;;;;;;;;;;;;;;9.63;100.00;101820.56;10258028;28;20079;-73
2024/03/21 10:09:04;;;;;;;12.20;7.80;;;;;;;9.80;100.00;101822.91;10264374;28;19931;-74
2024/03/21 10:14:00;;;;;;;10.45;6.40;;;;;;;9.64;100.00;101838.59;10261263;28;20052;-73
2024/03/21 10:18:58;;;;;;;8.98;5.53;;;;;;;9.79;100.00;101863.03;10264241;28;20052;-74
2024/03/21 10:24:04;;;;;;;6.82;4.72;;;;;;;9.64;100.00;101865.91;10263418;28;20065;-73
2024/03/21 10:29:00;;;;;;;5.47;3.88;;;;;;;9.71;100.00;101854.66;10260205;28;20065;-73
2024/03/21 10:33:57;;;;;;;7.30;4.07;;;;;;;9.85;100.00;101867.38;10272699;28;20049;-74
2024/03/21 10:38:58;;;;;;;4.63;3.35;;;;;;;9.81;100.00;101881.88;10276077;28;20048;-73
2024/03/21 10:43:57;;;;;;;4.43;2.70;;;;;;;9.70;100.00;101897.53;10258863;28;20083;-75
2024/03/21 10:48:52;;;;;;;3.70;2.30;;;;;;;9.68;100.00;101913.38;10275129;28;20072;-73
2024/03/21 10:53:56;;;;;;;5.25;3.75;;;;;;;9.44;100.00;101927.69;10271975;28;20405;-73
2024/03/21 10:58:58;;;;;;;9.02;5.88;;;;;;;9.34;100.00;101946.88;10275372;28;20073;-73
2024/03/21 11:03:54;;;;;;;;;;;;;;;9.23;100.00;101956.19;10258724;28;20064;-74
2024/03/21 11:08:54;;;;;;;11.40;7.22;;;;;;;8.93;100.00;101957.91;10264128;28;19947;-76
2024/03/21 11:13:50;;;;;;;12.13;7.03;;;;;;;8.91;100.00;101973.75;10261334;28;20076;-72
2024/03/21 11:18:46;;;;;;;10.80;6.72;;;;;;;8.70;100.00;101972.94;10254656;28;20108;-72
2024/03/21 11:23:43;;;;;;;14.40;8.77;;;;;;;9.02;100.00;101980.78;10259397;28;20076;-75
2024/03/21 11:28:38;;;;;;;13.70;8.48;;;;;;;8.99;100.00;101997.72;10252204;28;20535;-73
2024/03/21 11:33:34;;;;;;;12.35;7.80;;;;;;;8.92;100.00;101997.19;10277754;28;20051;-73
2024/03/21 11:38:29;;;;;;;13.13;7.95;;;;;;;9.13;100.00;102008.06;10259703;28;20152;-75
2024/03/21 11:43:27;;;;;;;12.13;7.70;;;;;;;9.20;100.00;102003.13;10257310;28;20056;-73
2024/03/21 11:48:26;;;;;;;11.77;6.65;;;;;;;9.00;100.00;102015.72;10258883;28;20493;-72
2024/03/21 11:53:22;;;;;;;12.15;7.30;;;;;;;9.14;100.00;102031.53;10262898;28;20076;-72
2024/03/21 11:58:17;;;;;;;10.52;7.47;;;;;;;9.05;100.00;102045.72;10266053;28;20631;-72
2024/03/21 12:03:13;;;;;;;12.32;7.63;;;;;;;9.03;100.00;102047.91;10273361;28;20053;-73
2024/03/21 12:08:08;;;;;;;12.13;7.63;;;;;;;9.19;100.00;102042.41;10272519;28;20037;-71
2024/03/21 12:13:04;;;;;;;11.60;7.22;;;;;;;9.31;100.00;102053.88;10261035;28;20732;-72
2024/03/21 12:17:59;;;;;;;11.90;7.80;;;;;;;9.50;100.00;102059.56;10243851;28;20600;-73
2024/03/21 12:23:04;;;;;;;11.77;7.18;;;;;;;9.38;100.00;102076.25;10249387;28;20051;-73
2024/03/21 12:27:59;;;;;;;10.70;7.47;;;;;;;9.46;100.00;102089.31;10251188;28;20123;-74
2024/03/21 12:32:55;;;;;;;10.82;6.90;;;;;;;9.55;100.00;102107.88;10264398;28;20057;-72
2024/03/21 12:37:56;;;;;;;12.20;6.75;;;;;;;9.22;100.00;102124.56;10263643;28;20053;-73
2024/03/21 12:42:52;;;;;;;11.37;7.03;;;;;;;9.17;100.00;102129.22;10254223;28;20084;-73
2024/03/21 12:47:47;;;;;;;10.85;6.88;;;;;;;9.56;100.00;102131.34;10250211;28;20037;-72
2024/03/21 12:52:43;;;;;;;10.30;6.45;;;;;;;9.59;100.00;102139.81;10250390;28;20051;-73
2024/03/21 12:57:39;;;;;;;10.70;7.13;;;;;;;9.22;100.00;102138.22;10262267;28;20056;-72
2024/03/21 13:02:34;;;;;;;10.32;7.35;;;;;;;9.30;100.00;102139.56;10260959;28;20049;-72
2024/03/21 13:07:31;;;;;;;12.55;7.75;;;;;;;9.29;100.00;102140.66;10263177;28;20050;-74
2024/03/21 13:12:26;;;;;;;10.23;8.00;;;;;;;9.11;100.00;102152.13;10257817;28;20114;-72
2024/03/21 13:17:22;;;;;;;9.15;6.55;;;;;;;9.21;100.00;102160.31;10261757;28;20409;-72
2024/03/21 13:22:17;;;;;;;12.07;7.25;;;;;;;9.35;100.00;102155.97;10254632;28;20056;-73
2024/03/21 13:27:13;;;;;;;11.60;6.88;;;;;;;9.30;100.00;102161.41;10260371;28;20041;-73
2024/03/21 13:32:08;;;;;;;10.60;7.93;;;;;;;9.29;100.00;102153.50;10243609;28;20049;-73
2024/03/21 13:37:04;;;;;;;12.25;7.68;;;;;;;9.54;100.00;102163.56;10247067;28;20041;-74
2024/03/21 13:42:01;;;;;;;10.60;7.47;;;;;;;9.55;100.00;102165.22;10259075;28;20056;-71
2024/03/21 13:46:57;;;;;;;11.27;7.80;;;;;;;9.56;100.00;102147.72;10254348;28;20068;-75
2024/03/21 13:51:54;;;;;;;11.10;7.63;;;;;;;9.69;100.00;102147.97;10251817;28;20037;-73
2024/03/21 13:56:50;;;;;;;12.88;8.40;;;;;;;9.74;100.00;102155.31;10256672;28;20127;-73
2024/03/21 14:01:46;;;;;;;11.52;8.27;;;;;;;9.72;100.00;102151.25;10276762;28;20111;-74
2024/03/21 14:06:41;;;;;;;12.10;8.18;;;;;;;10.00;100.00;102138.84;10268688;28;20033;-75
2024/03/21 14:11:37;;;;;;;11.00;8.60;;;;;;;10.48;100.00;102120.88;10275470;28;20426;-73
2024/03/21 14:16:33;;;;;;;11.25;9.30;;;;;;;10.44;100.00;102124.47;10270418;28;20072;-74
2024/03/21 14:21:29;;;;;;;13.30;9.32;;;;;;;10.68;100.00;102119.94;10264305;28;20049;-74
2024/03/21 14:26:25;;;;;;;11.85;8.95;;;;;;;10.58;100.00;102125.47;10261881;28;20075;-74
2024/03/21 14:31:20;;;;;;;11.48;9.18;;;;;;;10.24;100.00;102131.66;10266888;28;20045;-75
2024/03/21 14:36:16;;;;;;;13.07;9.25;;;;;;;10.20;100.00;102136.03;10263793;28;20091;-74
2024/03/21 14:41:12;;;;;;;12.10;10.13;;;;;;;9.98;100.00;102132.84;10270585;28;20073;-74
2024/03/21 14:46:10;;;;;;;12.77;9.27;;;;;;;10.11;100.00;102137.72;10274361;28;20041;-76
2024/03/21 14:51:06;;;;;;;16.42;11.40;;;;;;;9.82;100.00;102146.56;10267500;28;20079;-75
2024/03/21 14:56:01;;;;;;;19.48;12.75;;;;;;;9.50;100.00;102143.38;10270946;28;20051;-74
2024/03/21 15:00:57;;;;;;;22.50;13.32;;;;;;;9.44;100.00;102146.09;10282917;28;20048;-73
2024/03/21 15:05:52;;;;;;;23.30;13.18;;;;;;;9.30;100.00;102145.03;10266871;28;20056;-73
2024/03/21 15:10:48;;;;;;;20.60;13.82;;;;;;;9.50;100.00;102151.56;10260962;28;20049;-76
2024/03/21 15:15:43;;;;;;;19.33;12.52;;;;;;;9.48;100.00;102158.09;10267262;28;20053;-73
2024/03/21 15:20:41;;;;;;;22.52;14.25;;;;;;;9.51;100.00;102151.28;10275544;28;20044;-74
2024/03/21 15:25:36;;;;;;;22.42;11.43;;;;;;;8.95;100.00;102171.22;10278308;28;20578;-74
2024/03/21 15:30:32;;;;;;;24.52;11.65;;;;;;;8.86;100.00;102172.84;10263064;28;20045;-73
2024/03/21 15:35:27;;;;;;;19.08;8.98;;;;;;;8.80;100.00;102195.75;10265845;28;20060;-73
2024/03/21 15:40:23;;;;;;;18.20;8.82;;;;;;;8.75;100.00;102201.19;10267373;28;20049;-72
2024/03/21 15:45:18;;;;;;;12.80;6.72;;;;;;;8.50;100.00;102213.66;10268971;28;20094;-74
2024/03/21 15:50:14;;;;;;;12.40;6.53;;;;;;;8.48;100.00;102210.38;10272438;28;20055;-72
2024/03/21 15:55:10;;;;;;;9.95;5.55;;;;;;;8.57;100.00;102197.06;10271954;28;20049;-72
2024/03/21 16:00:09;;;;;;;13.23;6.47;;;;;;;8.72;100.00;102188.09;10265404;28;20085;-72
2024/03/21 16:05:05;;;;;;;13.60;7.03;;;;;;;8.80;100.00;102195.75;10262739;28;20091;-73
2024/03/21 16:10:01;;;;;;;10.77;5.97;;;;;;;8.72;100.00;102199.00;10267920;28;20120;-75
2024/03/21 16:14:56;;;;;;;12.60;6.03;;;;;;;8.70;100.00;102201.16;10264947;28;20045;-72
2024/03/21 16:19:52;;;;;;;11.43;6.00;;;;;;;8.90;100.00;102193.03;10262401;28;20051;-72
2024/03/21 16:24:47;;;;;;;12.68;6.15;;;;;;;8.75;100.00;102198.44;10274676;28;20493;-73
2024/03/21 16:29:43;;;;;;;15.15;6.68;;;;;;;8.55;100.00;102193.78;10269261;28;20047;-74
2024/03/21 16:34:39;;;;;;;15.88;6.63;;;;;;;8.39;100.00;102195.59;10270114;28;20131;-74
2024/03/21 16:39:34;;;;;;;10.35;6.18;;;;;;;8.26;100.00;102191.44;10250165;28;20046;-72
2024/03/21 16:44:31;;;;;;;18.83;7.00;;;;;;;8.12;100.00;102188.41;10268311;28;20148;-71
2024/03/21 16:49:26;;;;;;;15.25;6.82;;;;;;;8.02;100.00;102193.78;10242916;28;20977;-74
2024/03/21 16:54:22;;;;;;;12.48;5.55;;;;;;;8.13;100.00;102198.22;10254532;28;20041;-73
2024/03/21 16:59:23;;;;;;;13.68;7.30;;;;;;;8.01;100.00;102195.69;10256990;28;20072;-73
2024/03/21 17:04:18;;;;;;;11.38;7.43;;;;;;;7.89;100.00;102207.88;10272035;28;20064;-73
2024/03/21 17:09:14;;;;;;;14.55;7.57;;;;;;;7.90;100.00;102206.81;10256078;28;20472;-74
2024/03/21 17:14:10;;;;;;;11.70;6.53;;;;;;;7.89;100.00;102213.31;10253532;28;20485;-73
2024/03/21 17:19:05;;;;;;;9.27;7.25;;;;;;;7.88;100.00;102211.69;10261095;28;20253;-73
2024/03/21 17:24:01;;;;;;;11.20;6.63;;;;;;;7.79;100.00;102214.88;10240349;28;20433;-73
2024/03/21 17:28:56;;;;;;;9.93;6.95;;;;;;;7.68;100.00;102213.22;10253753;28;20433;-73
2024/03/21 17:33:52;;;;;;;11.05;6.93;;;;;;;7.71;100.00;102207.22;10250897;28;20484;-73
2024/03/21 17:38:47;;;;;;;11.85;7.50;;;;;;;7.58;100.00;102203.03;10254879;28;20121;-74
2024/03/21 17:43:45;;;;;;;14.15;7.68;;;;;;;7.61;100.00;102212.59;10242351;28;20112;-76
2024/03/21 17:48:41;;;;;;;15.38;7.47;;;;;;;7.55;100.00;102208.19;10250766;28;20073;-74
2024/03/21 17:53:37;;;;;;;17.02;7.68;;;;;;;7.58;100.00;102218.56;10267847;28;20044;-74
2024/03/21 17:58:32;;;;;;;15.52;8.48;;;;;;;7.55;100.00;102219.09;10260888;28;20044;-73
2024/03/21 18:03:28;;;;;;;15.75;9.00;;;;;;;7.45;100.00;102219.00;10250207;28;20782;-73
2024/03/21 18:08:24;;;;;;;22.52;9.85;;;;;;;7.40;100.00;102216.25;10242362;28;20096;-75
2024/03/21 18:13:21;;;;;;;16.17;9.02;;;;;;;7.38;100.00;102213.78;10246065;28;20052;-73
2024/03/21 18:18:17;;;;;;;17.55;8.88;;;;;;;7.42;100.00;102208.63;10255869;28;20044;-74
2024/03/21 18:23:14;;;;;;;19.52;10.43;;;;;;;7.41;100.00;102198.84;10252675;28;20037;-74
2024/03/21 18:28:11;;;;;;;18.42;8.77;;;;;;;7.35;100.00;102201.50;10256984;28;20072;-76
2024/03/21 18:33:08;;;;;;;15.43;8.43;;;;;;;7.37;100.00;102212.94;10245807;28;20065;-76
2024/03/21 18:38:07;;;;;;;19.27;8.38;;;;;;;7.42;100.00;102208.63;10248485;28;20122;-74
2024/03/21 18:43:02;;;;;;;18.98;8.30;;;;;;;7.44;100.00;102206.47;10252061;28;20071;-73
2024/03/21 18:47:58;;;;;;;23.00;8.90;;;;;;;7.48;100.00;102213.06;10257828;28;20072;-73
2024/03/21 18:52:54;;;;;;;19.05;9.18;;;;;;;7.58;100.00;102207.66;10258442;28;20045;-75
2024/03/21 18:57:49;;;;;;;20.02;9.23;;;;;;;7.57;100.00;102197.88;10274100;28;20617;-73
2024/03/21 19:02:45;;;;;;;17.70;9.23;;;;;;;7.55;100.00;102197.31;10271475;28;20542;-73
2024/03/21 19:07:40;;;;;;;22.60;10.05;;;;;;;7.56;100.00;102186.16;10267360;28;20480;-73
2024/03/21 19:12:36;;;;;;;16.45;8.52;;;;;;;7.53;100.00;102172.25;10258904;28;20047;-73
2024/03/21 19:17:32;;;;;;;18.83;9.55;;;;;;;7.63;100.00;102166.06;10268388;28;20146;-73
2024/03/21 19:22:27;;;;;;;21.73;9.25;;;;;;;7.61;100.00;102158.13;10265188;28;20041;-73
2024/03/21 19:27:25;;;;;;;18.20;9.15;;;;;;;7.56;100.00;102158.13;10277430;28;20045;-73
2024/03/21 19:32:22;;;;;;;19.08;9.80;;;;;;;7.55;100.00;102159.22;10259028;28;20092;-73
2024/03/21 19:37:18;;;;;;;21.63;9.32;;;;;;;7.51;100.00;102164.34;10270632;28;20079;-73
2024/03/21 19:42:13;;;;;;;21.10;10.90;;;;;;;7.57;100.00;102173.38;10255737;28;20056;-73
2024/03/21 19:47:09;;;;;;;17.67;9.23;;;;;;;7.57;100.00;102167.94;10264503;28;20041;-73
2024/03/21 19:52:05;;;;;;;22.52;9.15;;;;;;;7.65;100.00;102163.91;10264270;28;20040;-74
2024/03/21 19:57:01;;;;;;;19.15;10.18;;;;;;;7.77;100.00;102162.63;10268099;28;20276;-74
2024/03/21 20:01:56;;;;;;;20.70;9.65;;;;;;;7.85;100.00;102168.66;10271433;28;20537;-74
2024/03/21 20:06:52;;;;;;;15.60;8.98;;;;;;;7.90;100.00;102161.31;10263896;28;20108;-74
2024/03/21 20:11:48;;;;;;;17.75;10.77;;;;;;;7.89;100.00;102153.41;10261011;28;20423;-75
2024/03/21 20:16:43;;;;;;;16.77;7.72;;;;;;;7.91;100.00;102156.69;10254196;28;20485;-74
2024/03/21 20:21:39;;;;;;;20.38;8.63;;;;;;;7.87;100.00;102150.16;10267953;28;20385;-73
2024/03/21 20:26:35;;;;;;;17.08;7.80;;;;;;;7.82;100.00;102141.94;10259741;28;20041;-73
2024/03/21 20:31:30;;;;;;;13.70;7.10;;;;;;;7.78;100.00;102147.91;10272973;28;20045;-73
2024/03/21 20:36:26;;;;;;;17.15;7.35;;;;;;;7.70;100.00;102134.78;10278775;28;20088;-73
2024/03/21 20:41:21;;;;;;;15.68;7.15;;;;;;;7.72;100.00;102138.06;10274976;28;20056;-75
2024/03/21 20:46:17;;;;;;;15.38;7.18;;;;;;;7.68;100.00;102126.09;10263032;28;20037;-72
2024/03/21 20:51:14;;;;;;;19.30;8.77;;;;;;;7.71;100.00;102130.19;10254828;28;20048;-73
2024/03/21 20:56:12;;;;;;;14.00;6.60;;;;;;;7.74;100.00;102119.56;10256889;28;20078;-75
2024/03/21 21:01:12;;;;;;;14.45;7.75;;;;;;;7.66;100.00;102122.81;10265191;28;20077;-76
2024/03/21 21:06:08;;;;;;;13.05;7.03;;;;;;;7.68;100.00;102108.91;10256036;28;20523;-72
2024/03/21 21:11:04;;;;;;;17.85;7.45;;;;;;;7.64;100.00;102105.91;10271004;28;20095;-75
2024/03/21 21:16:01;;;;;;;13.70;7.35;;;;;;;7.72;100.00;102110.84;10254269;28;20132;-79
2024/03/21 21:21:00;;;;;;;13.02;7.97;;;;;;;7.70;100.00;102099.41;10258477;28;20123;-78
2024/03/21 21:26:03;;;;;;;19.13;9.13;;;;;;;7.70;100.00;102096.66;10264532;28;20079;-77
2024/03/21 21:31:04;;;;;;;14.80;8.45;;;;;;;7.73;100.00;102090.72;10261153;28;20048;-77
2024/03/21 21:36:02;;;;;;;14.07;7.13;;;;;;;7.74;100.00;102081.44;10270324;28;20045;-75
2024/03/21 21:41:00;;;;;;;13.88;7.88;;;;;;;7.70;100.00;102080.34;10263751;28;20592;-75
2024/03/21 21:45:55;;;;;;;13.20;7.68;;;;;;;7.76;100.00;102062.94;10263504;28;20068;-75
2024/03/21 21:51:04;;;;;;;16.02;7.60;;;;;;;7.82;100.00;102054.78;10269740;28;20047;-76
2024/03/21 21:56:01;;;;;;;16.67;7.85;;;;;;;7.86;100.00;102040.38;10251738;28;20072;-73
2024/03/21 22:00:57;;;;;;;16.35;7.50;;;;;;;7.91;100.00;102031.41;10255179;28;20069;-75
2024/03/21 22:06:00;;;;;;;14.68;8.38;;;;;;;7.87;100.00;102024.88;10268014;28;20041;-75
2024/03/21 22:10:56;;;;;;;14.57;8.55;;;;;;;7.95;100.00;102021.63;10263561;28;20222;-75
2024/03/21 22:15:52;;;;;;;17.52;8.38;;;;;;;7.93;100.00;102002.00;10266927;28;20045;-76
2024/03/21 22:21:00;;;;;;;14.60;8.20;;;;;;;7.92;100.00;101997.66;10266395;28;20045;-73
2024/03/21 22:25:55;;;;;;;17.58;9.38;;;;;;;7.88;100.00;101988.38;10251523;28;20056;-74